Time;durP1;ratioP1;P1;durP2;ratioP2;P2;SDS_P1;SDS_P2;PMS_P1;PMS_P2;Temp;Humidity;BMP_temperature;BMP_pressure;BME280_temperature;BME280_humidity;BME280_pressure;Samples;Min_cycle;Max_cycle;Signal;HPM_P1;HPM_P2
2022/10/16 00:02:47;;;;;;;21.30;14.30;;;;;;;19.01;37.87;101502.98;107663;1282;81702;-92
2022/10/16 00:08:27;;;;;;;22.90;14.30;;;;;;;18.99;37.71;101504.69;107754;1283;66406;-92
2022/10/16 00:14:05;;;;;;;24.10;14.50;;;;;;;18.98;37.71;101504.56;107490;1284;74405;-91
2022/10/16 00:20:27;;;;;;;20.80;14.10;;;;;;;18.97;37.63;101510.64;107763;1283;71368;-91
2022/10/16 00:23:42;;;;;;;23.70;14.30;;;;;;;18.96;37.61;101508.52;107733;1283;66254;-93
2022/10/16 00:30:00;;;;;;;23.50;13.70;;;;;;;18.94;37.60;101508.98;107663;1282;74206;-92
2022/10/16 00:38:27;;;;;;;20.20;13.80;;;;;;;18.94;37.41;101518.14;107425;1282;66763;-91
2022/10/16 00:41:34;;;;;;;23.70;14.50;;;;;;;18.93;37.44;101518.02;107869;1282;66736;-89
2022/10/16 00:44:59;;;;;;;24.20;14.00;;;;;;;18.92;37.39;101518.66;107791;1283;73246;-92
2022/10/16 00:50:50;;;;;;;20.10;13.50;;;;;;;18.91;37.32;101522.97;107816;1283;72236;-92
2022/10/16 00:56:39;;;;;;;21.60;13.30;;;;;;;18.91;37.29;101518.41;107680;1282;67425;-92
2022/10/16 01:02:45;;;;;;;19.40;13.60;;;;;;;18.89;37.31;101512.63;107722;1281;81786;-90
2022/10/16 01:11:47;;;;;;;21.60;13.20;;;;;;;18.88;37.26;101504.12;107524;1282;67301;-92
2022/10/16 01:15:01;;;;;;;22.00;13.70;;;;;;;18.87;37.21;101505.94;107529;1282;73343;-92
2022/10/16 01:18:12;;;;;;;22.20;14.00;;;;;;;18.87;37.19;101509.70;107403;1284;81261;-92
2022/10/16 01:27:37;;;;;;;20.60;13.10;;;;;;;18.83;37.19;101521.42;107466;1285;66169;-90
2022/10/16 01:36:17;;;;;;;20.10;14.30;;;;;;;18.83;37.24;101528.15;107441;1284;71513;-90
2022/10/16 01:42:00;;;;;;;19.30;12.80;;;;;;;18.82;37.15;101532.11;107495;1284;67714;-92
2022/10/16 01:47:51;;;;;;;21.70;13.30;;;;;;;18.82;37.09;101535.58;107659;1284;82177;-92
2022/10/16 01:53:28;;;;;;;19.90;13.50;;;;;;;18.81;37.09;101535.77;107576;1284;66900;-92
2022/10/16 01:56:40;;;;;;;22.50;13.30;;;;;;;18.81;37.06;101538.36;107453;1284;66104;-92
2022/10/16 02:02:43;;;;;;;21.40;13.30;;;;;;;18.80;37.02;101548.89;107521;1284;82287;-92
2022/10/16 02:11:14;;;;;;;17.60;12.20;;;;;;;18.76;37.07;101553.45;107466;1283;66683;-90
2022/10/16 02:14:24;;;;;;;22.80;13.10;;;;;;;18.76;37.07;101552.67;107508;1282;74243;-92
2022/10/16 02:20:14;;;;;;;22.30;13.70;;;;;;;18.76;36.96;101560.67;107466;1283;72123;-91
2022/10/16 02:25:55;;;;;;;20.60;13.60;;;;;;;18.76;36.93;101559.65;107486;1284;66395;31
2022/10/16 02:32:10;;;;;;;19.80;13.80;;;;;;;18.75;36.95;101568.90;107842;1283;81724;-90
2022/10/16 02:38:03;;;;;;;19.90;13.80;;;;;;;18.73;36.83;101568.09;107518;1284;66116;-92
2022/10/16 02:43:54;;;;;;;17.70;13.40;;;;;;;18.73;36.81;101567.88;107507;1283;73988;31
2022/10/16 02:50:03;;;;;;;20.20;13.80;;;;;;;18.72;36.79;101569.12;107711;1283;72159;-92
2022/10/16 02:55:55;;;;;;;;;;;;;;;18.71;36.76;101569.06;107676;1283;68346;31
2022/10/16 03:01:52;;;;;;;19.50;13.00;;;;;;;18.68;36.74;101571.77;107673;1283;81736;-90
2022/10/16 03:11:03;;;;;;;16.80;12.40;;;;;;;18.67;36.68;101581.09;107646;1283;66207;31
2022/10/16 03:16:53;;;;;;;19.20;11.10;;;;;;;18.67;36.53;101584.95;107907;1283;81989;-91
2022/10/16 03:22:43;;;;;;;17.00;11.40;;;;;;;18.66;36.54;101589.30;107707;1283;66704;31
2022/10/16 03:28:42;;;;;;;18.30;11.30;;;;;;;18.65;36.51;101593.11;107733;1282;74072;31
2022/10/16 03:34:45;;;;;;;20.00;10.20;;;;;;;18.64;36.41;101593.73;107676;1283;71953;31
2022/10/16 03:40:21;;;;;;;16.80;10.30;;;;;;;18.64;36.40;101597.56;107836;1283;66103;-90
2022/10/16 03:48:45;;;;;;;14.30;9.80;;;;;;;18.63;36.33;101589.29;107663;1283;71337;-92
2022/10/16 03:54:22;;;;;;;18.10;10.30;;;;;;;18.62;36.29;101583.87;107668;1282;67797;-93
2022/10/16 04:00:01;;;;;;;15.00;9.60;;;;;;;18.61;36.28;101586.02;107720;1283;73020;-92
2022/10/16 04:03:05;;;;;;;15.50;9.90;;;;;;;18.61;36.26;101587.70;107684;1283;72165;-92
2022/10/16 04:08:59;;;;;;;16.20;9.00;;;;;;;18.60;36.19;101593.89;107818;1282;66830;-91
2022/10/16 04:17:22;;;;;;;14.40;9.50;;;;;;;18.59;36.11;101603.89;107715;1283;71508;-92
2022/10/16 04:23:03;;;;;;;16.40;9.30;;;;;;;18.58;36.08;101607.49;107734;1282;66183;-91
2022/10/16 04:32:10;;;;;;;13.30;8.20;;;;;;;18.57;36.01;101617.74;107875;1282;71357;-91
2022/10/16 04:40:46;;;;;;;15.30;9.40;;;;;;;18.55;35.99;101612.77;107822;1282;74126;-92
2022/10/16 04:46:37;;;;;;;16.90;9.20;;;;;;;18.54;35.93;101618.34;107886;1282;71266;-91
2022/10/16 04:52:26;;;;;;;14.80;8.90;;;;;;;18.54;35.86;101628.14;107681;1284;67715;31
2022/10/16 05:01:27;;;;;;;18.90;9.10;;;;;;;18.52;35.94;101643.02;107745;1282;72167;-90
2022/10/16 05:07:34;;;;;;;13.00;8.70;;;;;;;18.52;35.92;101648.66;108142;1282;66238;31
2022/10/16 05:13:23;;;;;;;18.80;8.20;;;;;;;18.51;35.82;101659.48;108008;1283;81831;31
2022/10/16 05:19:20;;;;;;;14.70;8.30;;;;;;;18.49;35.87;101656.73;107828;1283;66758;31
2022/10/16 05:25:18;;;;;;;12.90;8.80;;;;;;;18.48;35.86;101667.27;107865;1283;74015;31
2022/10/16 05:28:25;;;;;;;13.50;8.30;;;;;;;18.48;35.85;101670.73;107839;1283;80811;-91
2022/10/16 05:34:17;;;;;;;11.60;8.20;;;;;;;18.48;35.78;101685.15;107816;1283;66221;-91
2022/10/16 05:40:26;;;;;;;15.90;7.40;;;;;;;18.48;35.72;101693.87;107944;1281;74252;-92
2022/10/16 05:46:19;;;;;;;9.70;6.80;;;;;;;18.48;35.67;101701.87;107941;1282;72074;-92
2022/10/16 05:52:11;;;;;;;12.00;6.50;;;;;;;18.49;35.52;101709.54;107829;1285;66059;31
2022/10/16 05:58:25;;;;;;;10.40;6.60;;;;;;;18.50;35.41;101713.29;107828;1283;81803;-92
2022/10/16 06:04:19;;;;;;;9.50;5.90;;;;;;;18.51;35.46;101720.70;107830;1283;66910;-89
2022/10/16 06:10:08;;;;;;;13.40;5.90;;;;;;;18.50;35.34;101733.53;108074;1282;74191;31
2022/10/16 06:16:16;;;;;;;;;;;;;;;18.50;35.32;101740.49;108042;1282;72101;-92
2022/10/16 06:22:19;;;;;;;9.70;6.00;;;;;;;18.49;35.28;101743.73;107723;1284;66867;31
2022/10/16 06:31:47;;;;;;;9.10;6.20;;;;;;;18.49;35.31;101752.39;107823;1283;72116;-91
2022/10/16 06:37:29;;;;;;;9.40;5.50;;;;;;;18.50;35.19;101754.52;107829;1281;67777;-90
2022/10/16 06:43:15;;;;;;;9.70;5.40;;;;;;;18.52;35.17;101757.18;107755;1283;81250;-91
2022/10/16 06:49:03;;;;;;;9.20;5.10;;;;;;;18.54;35.05;101762.39;107786;1283;66723;-90
2022/10/16 06:57:57;;;;;;;8.90;5.60;;;;;;;18.55;35.05;101777.96;107835;1283;81717;31
2022/10/16 07:01:06;;;;;;;9.60;5.70;;;;;;;18.55;35.01;101780.35;107820;1283;72087;-91
2022/10/16 07:04:13;;;;;;;9.50;5.80;;;;;;;18.56;35.01;101781.91;107702;1283;66843;-92
2022/10/16 07:10:13;;;;;;;6.70;5.40;;;;;;;18.55;35.00;101775.62;107855;1282;73636;-91
2022/10/16 07:18:59;;;;;;;9.40;5.50;;;;;;;18.55;34.91;101780.57;107831;1283;66228;31
2022/10/16 07:22:13;;;;;;;9.90;5.50;;;;;;;18.55;34.92;101787.61;107862;1282;66083;-90
2022/10/16 07:25:19;;;;;;;12.70;5.70;;;;;;;18.56;34.84;101787.20;107824;1283;73519;-91
2022/10/16 07:34:33;;;;;;;9.00;5.30;;;;;;;18.56;34.80;101788.14;107711;1284;66131;-92
2022/10/16 07:40:13;;;;;;;9.10;5.40;;;;;;;18.57;34.77;101778.65;107747;1283;74654;-92
2022/10/16 07:46:03;;;;;;;8.40;5.60;;;;;;;18.57;34.78;101775.84;107716;1283;72165;-91
2022/10/16 07:51:55;;;;;;;7.80;5.50;;;;;;;18.58;34.76;101776.52;107726;1282;66125;-89
2022/10/16 07:58:19;;;;;;;8.60;5.40;;;;;;;18.58;34.77;101775.09;107845;1282;80156;-92
2022/10/16 08:01:27;;;;;;;9.40;5.90;;;;;;;18.59;34.83;101772.73;107740;1283;71881;-92
2022/10/16 08:10:13;;;;;;;11.70;5.40;;;;;;;18.59;34.81;101779.92;107752;1282;74087;-92
2022/10/16 08:15:55;;;;;;;9.90;5.20;;;;;;;18.60;34.79;101779.25;107738;1282;71945;-90
2022/10/16 08:22:03;;;;;;;11.20;5.70;;;;;;;18.61;34.85;101783.06;107891;1282;66226;-93
2022/10/16 08:30:47;;;;;;;9.80;5.50;;;;;;;18.63;34.84;101787.70;107433;1287;71408;-92
2022/10/16 08:36:28;;;;;;;9.00;5.30;;;;;;;18.63;34.85;101789.56;107707;1283;66104;-92
2022/10/16 08:42:24;;;;;;;9.40;5.80;;;;;;;18.65;34.74;101797.59;107857;1283;81730;-92
2022/10/16 08:48:13;;;;;;;10.60;5.60;;;;;;;18.66;34.81;101798.89;107792;1283;66819;-92
2022/10/16 08:51:18;;;;;;;9.70;4.70;;;;;;;18.66;34.78;101798.70;107722;1283;66746;-91
2022/10/16 08:57:32;;;;;;;8.20;5.70;;;;;;;18.68;34.85;101794.16;107784;1283;81697;-90
2022/10/16 09:03:35;;;;;;;;;;;;;;;18.68;34.89;101791.10;107716;1283;66107;-92
2022/10/16 09:09:08;;;;;;;;;;;;;;;18.69;34.90;101797.65;107760;1283;73957;-91
2022/10/16 09:15:07;;;;;;;8.80;5.60;;;;;;;18.68;34.93;101792.95;107743;1283;72115;-92
2022/10/16 09:23:49;;;;;;;9.50;5.90;;;;;;;18.72;34.94;101787.44;107828;1283;73988;-90
2022/10/16 09:29:39;;;;;;;10.40;6.50;;;;;;;18.73;34.95;101782.97;107697;1281;71388;-91
2022/10/16 09:35:28;;;;;;;10.50;6.60;;;;;;;18.75;35.12;101783.06;107790;1283;67070;-90
2022/10/16 09:41:05;;;;;;;8.90;6.70;;;;;;;18.77;35.11;101786.15;107731;1283;81720;-92
2022/10/16 09:50:05;;;;;;;11.50;6.60;;;;;;;18.80;35.22;101783.80;107679;1282;66157;-92
2022/10/16 09:55:41;;;;;;;8.40;6.40;;;;;;;18.79;35.22;101774.09;107729;1283;81803;-92
2022/10/16 10:04:18;;;;;;;11.60;7.60;;;;;;;18.84;35.28;101766.36;107750;1284;67077;-92
2022/10/16 10:07:22;;;;;;;13.20;7.40;;;;;;;18.84;35.29;101757.20;107641;1284;74137;-92
2022/10/16 10:13:20;;;;;;;9.20;7.50;;;;;;;18.85;35.43;101757.00;107715;1284;71846;-90
2022/10/16 10:18:55;;;;;;;13.10;8.10;;;;;;;18.86;35.45;101755.66;107621;1284;66935;-91
2022/10/16 10:24:31;;;;;;;10.40;8.00;;;;;;;18.87;35.46;101747.63;107732;1282;81244;-90
2022/10/16 10:30:23;;;;;;;12.70;8.00;;;;;;;18.88;35.50;101738.92;107804;1282;66839;-92
2022/10/16 10:36:19;;;;;;;13.50;8.10;;;;;;;18.89;35.49;101741.36;107729;1282;74203;-92
2022/10/16 10:39:13;;;;;;;11.60;8.00;;;;;;;18.90;35.53;101735.00;107802;1283;81581;-88
2022/10/16 10:42:27;;;;;;;11.00;7.90;;;;;;;18.90;35.58;101734.34;107701;1282;72256;-91
2022/10/16 10:49:01;;;;;;;12.50;8.90;;;;;;;18.91;35.66;101732.72;107668;1284;66706;-91
2022/10/16 10:58:07;;;;;;;12.30;8.40;;;;;;;18.92;35.70;101737.80;107725;1282;72212;-90
2022/10/16 11:04:06;;;;;;;12.30;8.90;;;;;;;18.92;35.74;101725.27;107740;1284;67336;-91
2022/10/16 11:07:21;;;;;;;13.50;9.00;;;;;;;18.93;35.77;101723.25;107702;1283;74135;-92
2022/10/16 11:10:26;;;;;;;11.10;8.70;;;;;;;18.93;35.83;101724.04;107930;1283;82020;-92
2022/10/16 11:23:44;;;;;;;12.50;9.00;;;;;;;18.94;35.81;101716.63;103881;1282;5494698;-91
2022/10/16 11:30:36;;;;;;;11.80;8.90;;;;;;;18.95;35.91;101717.20;107596;1282;67175;-92
